Time;durP1;ratioP1;P1;durP2;ratioP2;P2;SDS_P1;SDS_P2;PMS_P1;PMS_P2;Temp;Humidity;BMP_temperature;BMP_pressure;BME280_temperature;BME280_humidity;BME280_pressure;Samples;Min_cycle;Max_cycle;Signal;HPM_P1;HPM_P2
2022/07/20 00:02:22;;;;;;;5.35;2.10;;;;;;;;;;4914888;29;20072;-41
2022/07/20 00:04:51;;;;;;;9.80;2.47;;;;;;;;;;4915390;29;20032;-41
2022/07/20 00:07:17;;;;;;;6.10;2.00;;;;;;;;;;4918693;29;20055;-43
2022/07/20 00:12:27;;;;;;;11.23;2.58;;;;;;;;;;4918101;29;20445;-41
2022/07/20 00:14:52;;;;;;;9.77;2.30;;;;;;;;;;4918104;29;20115;-42
2022/07/20 00:17:17;;;;;;;5.30;2.00;;;;;;;;;;4918030;29;20489;-43
2022/07/20 00:19:43;;;;;;;6.75;2.45;;;;;;;;;;4917489;29;20047;-40
2022/07/20 00:22:08;;;;;;;5.22;2.03;;;;;;;;;;4917938;29;20035;-40
2022/07/20 00:24:34;;;;;;;2.92;1.90;;;;;;;;;;4917994;29;20388;-44
2022/07/20 00:26:59;;;;;;;6.93;1.75;;;;;;;;;;4917855;29;20488;-41
2022/07/20 00:29:24;;;;;;;5.15;2.03;;;;;;;;;;4917653;29;20028;-42
2022/07/20 00:31:50;;;;;;;4.07;1.88;;;;;;;;;;4917741;29;20047;-41
2022/07/20 00:34:15;;;;;;;4.55;1.98;;;;;;;;;;4917464;29;20025;-42
2022/07/20 00:36:41;;;;;;;6.20;2.78;;;;;;;;;;4917639;29;20036;-45
2022/07/20 00:39:06;;;;;;;9.38;2.00;;;;;;;;;;4917599;29;20524;-41
2022/07/20 00:41:32;;;;;;;9.30;2.15;;;;;;;;;;4917460;29;20066;-44
2022/07/20 00:43:59;;;;;;;6.35;2.13;;;;;;;;;;4917692;29;20032;-42
2022/07/20 00:46:25;;;;;;;7.03;2.15;;;;;;;;;;4917182;29;20031;-42
2022/07/20 00:48:51;;;;;;;2.03;1.83;;;;;;;;;;4917924;29;20099;-41
2022/07/20 00:51:17;;;;;;;8.48;2.40;;;;;;;;;;4919271;29;20042;-44
2022/07/20 00:53:43;;;;;;;5.28;1.67;;;;;;;;;;4918843;29;20388;-45
2022/07/20 00:56:10;;;;;;;5.05;1.88;;;;;;;;;;4918192;29;20042;-41
2022/07/20 00:58:35;;;;;;;5.05;1.45;;;;;;;;;;4918702;29;20024;-41
2022/07/20 01:01:01;;;;;;;4.30;1.92;;;;;;;;;;4918690;29;20036;-42
2022/07/20 01:03:27;;;;;;;2.58;1.80;;;;;;;;;;4918601;29;20464;-43
2022/07/20 01:05:52;;;;;;;2.63;1.70;;;;;;;;;;4919032;29;20055;-45
2022/07/20 01:08:18;;;;;;;8.30;2.38;;;;;;;;;;4919061;29;20073;-43
2022/07/20 01:10:43;;;;;;;2.90;1.73;;;;;;;;;;4918664;29;20461;-45
2022/07/20 01:13:09;;;;;;;4.18;2.00;;;;;;;;;;4918879;29;20039;-43
2022/07/20 01:15:35;;;;;;;5.10;1.70;;;;;;;;;;4918066;29;20028;-44
2022/07/20 01:18:00;;;;;;;4.10;1.75;;;;;;;;;;4918807;29;20063;-44
2022/07/20 01:20:28;;;;;;;5.18;2.10;;;;;;;;;;4918696;29;20032;-42
2022/07/20 01:22:53;;;;;;;4.22;2.22;;;;;;;;;;4918464;29;20059;-44
2022/07/20 01:25:19;;;;;;;13.65;2.05;;;;;;;;;;4918656;29;20024;-42
2022/07/20 01:27:44;;;;;;;5.25;2.10;;;;;;;;;;4918629;29;20038;-44
2022/07/20 01:30:10;;;;;;;7.68;2.10;;;;;;;;;;4918572;29;20062;-44
2022/07/20 01:32:36;;;;;;;11.25;2.38;;;;;;;;;;4918314;29;20505;-43
2022/07/20 01:35:01;;;;;;;3.15;1.90;;;;;;;;;;4918210;29;20036;-42
2022/07/20 01:37:28;;;;;;;4.53;2.17;;;;;;;;;;4918225;29;20028;-44
2022/07/20 01:39:53;;;;;;;8.07;2.08;;;;;;;;;;4918195;29;20392;-45
2022/07/20 01:42:19;;;;;;;2.80;2.22;;;;;;;;;;4918394;29;20027;-45
2022/07/20 01:44:44;;;;;;;5.60;2.25;;;;;;;;;;4918294;29;20103;-42
2022/07/20 01:47:09;;;;;;;5.28;2.15;;;;;;;;;;4917989;29;20544;-43
2022/07/20 01:49:35;;;;;;;9.07;2.13;;;;;;;;;;4917873;29;20079;-42
2022/07/20 01:52:01;;;;;;;1.80;1.70;;;;;;;;;;4918027;29;20032;-42
2022/07/20 01:54:26;;;;;;;6.63;1.95;;;;;;;;;;4917794;29;20024;-43
2022/07/20 01:56:52;;;;;;;4.80;1.90;;;;;;;;;;4918054;29;20032;-42
2022/07/20 01:59:17;;;;;;;8.15;1.80;;;;;;;;;;4917993;29;20047;-41
2022/07/20 02:01:43;;;;;;;3.80;1.77;;;;;;;;;;4917777;29;20028;-43
2022/07/20 02:04:08;;;;;;;10.45;2.20;;;;;;;;;;4917963;29;20111;-46
2022/07/20 02:06:34;;;;;;;5.22;1.95;;;;;;;;;;4917945;29;20047;-42
2022/07/20 02:08:59;;;;;;;7.10;2.08;;;;;;;;;;4917548;29;20476;-41
2022/07/20 02:11:24;;;;;;;3.63;1.95;;;;;;;;;;4917731;29;20032;-45
2022/07/20 02:13:50;;;;;;;5.57;1.95;;;;;;;;;;4917574;29;20496;-44
2022/07/20 02:16:15;;;;;;;2.25;1.58;;;;;;;;;;4917512;29;20028;-44
2022/07/20 02:18:52;;;;;;;3.60;1.77;;;;;;;;;;4917462;29;20070;-41
2022/07/20 02:21:20;;;;;;;5.75;1.88;;;;;;;;;;4917722;29;20442;-42
2022/07/20 02:23:46;;;;;;;3.30;1.70;;;;;;;;;;4917651;29;20362;-42
2022/07/20 02:26:11;;;;;;;7.28;2.47;;;;;;;;;;4917642;29;20016;-41
2022/07/20 02:28:38;;;;;;;8.05;2.65;;;;;;;;;;4916439;29;20388;-45
2022/07/20 02:31:04;;;;;;;8.60;2.38;;;;;;;;;;4917064;29;20039;-44
2022/07/20 02:33:29;;;;;;;6.03;2.15;;;;;;;;;;4917539;29;20028;-46
2022/07/20 02:35:54;;;;;;;7.15;2.28;;;;;;;;;;4917111;29;20031;-42
2022/07/20 02:38:20;;;;;;;11.05;1.88;;;;;;;;;;4917077;29;20043;-42
2022/07/20 02:40:46;;;;;;;5.38;2.40;;;;;;;;;;4917081;29;20060;-43
2022/07/20 02:43:11;;;;;;;4.40;2.45;;;;;;;;;;4916988;29;20109;-45
2022/07/20 02:45:37;;;;;;;4.57;2.70;;;;;;;;;;4917280;29;20029;-46
2022/07/20 02:48:02;;;;;;;3.42;1.98;;;;;;;;;;4916820;29;20059;-44
2022/07/20 02:50:30;;;;;;;3.65;2.53;;;;;;;;;;4916839;29;20505;-43
2022/07/20 02:52:55;;;;;;;4.05;2.13;;;;;;;;;;4916837;29;20032;-42
2022/07/20 02:55:21;;;;;;;2.35;2.15;;;;;;;;;;4917149;29;20030;-46
2022/07/20 02:57:46;;;;;;;3.45;2.53;;;;;;;;;;4916812;29;20024;-44
2022/07/20 03:00:12;;;;;;;6.97;2.30;;;;;;;;;;4916707;29;20028;-44
2022/07/20 03:02:37;;;;;;;10.13;2.70;;;;;;;;;;4917015;29;20059;-44
2022/07/20 03:05:03;;;;;;;7.93;2.60;;;;;;;;;;4916858;29;20402;-41
2022/07/20 03:07:29;;;;;;;3.67;2.42;;;;;;;;;;4917082;29;20031;-42
2022/07/20 03:09:54;;;;;;;4.85;2.40;;;;;;;;;;4916907;29;20393;-44
2022/07/20 03:12:19;;;;;;;3.92;2.47;;;;;;;;;;4916757;29;20042;-42
2022/07/20 03:14:45;;;;;;;6.20;2.50;;;;;;;;;;4916693;29;20032;-41
2022/07/20 03:17:10;;;;;;;5.10;2.38;;;;;;;;;;4916464;29;20445;-42
2022/07/20 03:19:35;;;;;;;3.45;2.28;;;;;;;;;;4916438;29;20039;-42
2022/07/20 03:22:01;;;;;;;4.47;2.40;;;;;;;;;;4916331;29;20425;-42
2022/07/20 03:24:26;;;;;;;6.47;2.40;;;;;;;;;;4916596;29;20059;-44
2022/07/20 03:26:52;;;;;;;4.43;2.00;;;;;;;;;;4916310;29;20477;-44
2022/07/20 03:29:17;;;;;;;6.97;1.92;;;;;;;;;;4916564;29;20036;-45
2022/07/20 03:31:42;;;;;;;4.88;2.20;;;;;;;;;;4916413;29;20036;-44
2022/07/20 03:34:08;;;;;;;6.70;2.38;;;;;;;;;;4916110;29;20111;-42
2022/07/20 03:36:33;;;;;;;12.48;2.50;;;;;;;;;;4916130;29;20044;-44
2022/07/20 03:38:58;;;;;;;2.33;1.95;;;;;;;;;;4915967;29;20032;-45
2022/07/20 03:41:24;;;;;;;4.18;2.35;;;;;;;;;;4916538;29;20031;-43
2022/07/20 03:43:49;;;;;;;2.72;1.92;;;;;;;;;;4916558;29;20500;-43
2022/07/20 03:46:17;;;;;;;3.40;2.17;;;;;;;;;;4916048;29;20028;-42
2022/07/20 03:48:43;;;;;;;2.30;2.10;;;;;;;;;;4916157;29;20113;-43
2022/07/20 03:51:08;;;;;;;6.82;2.10;;;;;;;;;;4916324;29;20028;-43
2022/07/20 03:53:34;;;;;;;5.65;2.08;;;;;;;;;;4916428;29;20032;-43
2022/07/20 03:55:59;;;;;;;7.70;2.28;;;;;;;;;;4916456;29;20135;-45
2022/07/20 03:58:25;;;;;;;8.38;2.42;;;;;;;;;;4915970;29;20060;-42
2022/07/20 04:00:50;;;;;;;13.00;2.97;;;;;;;;;;4916330;29;20043;-43
2022/07/20 04:03:15;;;;;;;5.88;2.22;;;;;;;;;;4916224;29;20102;-41
2022/07/20 04:05:41;;;;;;;5.07;2.00;;;;;;;;;;4916219;29;20064;-42
2022/07/20 04:08:08;;;;;;;4.03;2.40;;;;;;;;;;4916174;29;20024;-44
2022/07/20 04:10:35;;;;;;;5.30;1.92;;;;;;;;;;4916154;29;20039;-43
2022/07/20 04:13:00;;;;;;;6.25;2.15;;;;;;;;;;4916154;29;20062;-42
2022/07/20 04:15:25;;;;;;;5.78;2.03;;;;;;;;;;4916189;29;20527;-46
2022/07/20 04:17:51;;;;;;;4.63;2.00;;;;;;;;;;4916020;29;20152;-48
2022/07/20 04:20:16;;;;;;;3.83;2.10;;;;;;;;;;4916073;29;20028;-47
2022/07/20 04:22:42;;;;;;;5.50;2.30;;;;;;;;;;4916090;29;20039;-49
2022/07/20 04:25:07;;;;;;;3.13;2.10;;;;;;;;;;4916090;29;20025;-45
2022/07/20 04:27:33;;;;;;;6.15;2.00;;;;;;;;;;4916030;29;20028;-48
2022/07/20 04:29:58;;;;;;;5.38;1.98;;;;;;;;;;4915800;29;20029;-49
2022/07/20 04:32:24;;;;;;;6.00;1.88;;;;;;;;;;4915614;29;20084;-45
2022/07/20 04:34:49;;;;;;;5.75;2.28;;;;;;;;;;4914829;29;20036;-46
2022/07/20 04:37:14;;;;;;;8.68;2.83;;;;;;;;;;4915930;29;20445;-45
2022/07/20 04:39:40;;;;;;;3.75;2.00;;;;;;;;;;4916086;29;20037;-46
2022/07/20 04:42:05;;;;;;;5.32;1.80;;;;;;;;;;4915837;29;20477;-48
2022/07/20 04:44:31;;;;;;;4.15;2.58;;;;;;;;;;4915582;29;20504;-46
2022/07/20 04:46:56;;;;;;;6.00;2.10;;;;;;;;;;4915499;29;20051;-47
2022/07/20 04:49:22;;;;;;;5.68;2.45;;;;;;;;;;4915825;29;20032;-47
2022/07/20 04:51:47;;;;;;;7.25;2.15;;;;;;;;;;4917859;29;20036;-45
2022/07/20 04:54:12;;;;;;;13.85;1.95;;;;;;;;;;4919273;29;20028;-46
2022/07/20 04:56:38;;;;;;;9.65;1.98;;;;;;;;;;4919168;29;20033;-47
2022/07/20 04:59:04;;;;;;;7.18;2.00;;;;;;;;;;4919209;29;20385;-46
2022/07/20 05:01:29;;;;;;;7.35;1.90;;;;;;;;;;4919107;29;20351;-46
2022/07/20 05:03:55;;;;;;;6.57;1.75;;;;;;;;;;4919077;29;20032;-42
2022/07/20 05:06:20;;;;;;;5.82;1.77;;;;;;;;;;4918664;29;20541;-42
2022/07/20 05:08:46;;;;;;;6.35;1.85;;;;;;;;;;4919053;29;20116;-45
2022/07/20 05:11:12;;;;;;;9.43;2.15;;;;;;;;;;4918585;29;20366;-41
2022/07/20 05:13:38;;;;;;;10.38;2.08;;;;;;;;;;4918684;29;20043;-41
2022/07/20 05:16:05;;;;;;;6.40;1.67;;;;;;;;;;4918643;29;20036;-42
2022/07/20 05:18:32;;;;;;;3.55;1.80;;;;;;;;;;4918820;29;20047;-41
2022/07/20 05:20:57;;;;;;;7.53;1.90;;;;;;;;;;4918784;29;20032;-41
2022/07/20 05:23:23;;;;;;;4.05;1.70;;;;;;;;;;4918812;29;20534;-43
2022/07/20 05:25:49;;;;;;;4.20;1.83;;;;;;;;;;4918792;29;20024;-45
2022/07/20 05:28:18;;;;;;;8.90;1.70;;;;;;;;;;4918673;29;20110;-44
2022/07/20 05:30:45;;;;;;;7.90;1.67;;;;;;;;;;4917794;29;20473;-44
2022/07/20 05:33:10;;;;;;;25.80;2.38;;;;;;;;;;4918501;29;20044;-47
2022/07/20 05:35:36;;;;;;;20.13;2.50;;;;;;;;;;4918229;29;20389;-47
2022/07/20 05:38:02;;;;;;;2.55;1.52;;;;;;;;;;4918219;29;20062;-48
2022/07/20 05:40:28;;;;;;;7.10;1.63;;;;;;;;;;4918439;29;20083;-47
2022/07/20 05:42:53;;;;;;;13.13;2.90;;;;;;;;;;4918399;29;20421;-47
2022/07/20 05:45:19;;;;;;;5.38;1.70;;;;;;;;;;4918077;29;20115;-45
2022/07/20 05:47:45;;;;;;;8.60;1.80;;;;;;;;;;4917627;29;20168;-49
2022/07/20 05:50:10;;;;;;;6.43;1.85;;;;;;;;;;4918181;29;20028;-45
2022/07/20 05:52:35;;;;;;;5.65;1.40;;;;;;;;;;4918118;29;20035;-45
2022/07/20 05:55:01;;;;;;;10.35;1.80;;;;;;;;;;4918032;29;20092;-48
2022/07/20 05:57:26;;;;;;;8.52;1.60;;;;;;;;;;4918051;29;20491;-47
2022/07/20 05:59:52;;;;;;;9.60;1.67;;;;;;;;;;4917831;29;20448;-48
2022/07/20 06:02:17;;;;;;;5.90;1.80;;;;;;;;;;4917782;29;20112;-44
2022/07/20 06:04:43;;;;;;;11.10;1.83;;;;;;;;;;4917986;29;20115;-47
2022/07/20 06:07:08;;;;;;;11.30;1.90;;;;;;;;;;4917897;29;20051;-43
2022/07/20 06:09:33;;;;;;;12.05;1.92;;;;;;;;;;4917777;29;20107;-42
2022/07/20 06:11:59;;;;;;;8.73;2.20;;;;;;;;;;4917715;29;20032;-44
2022/07/20 06:14:24;;;;;;;12.25;2.22;;;;;;;;;;4917686;29;20110;-44
2022/07/20 06:16:50;;;;;;;13.25;2.13;;;;;;;;;;4917453;29;20032;-45
2022/07/20 06:19:15;;;;;;;13.52;1.83;;;;;;;;;;4917636;29;20032;-45
2022/07/20 06:21:40;;;;;;;4.43;1.90;;;;;;;;;;4917300;29;20032;-46
2022/07/20 06:24:06;;;;;;;7.25;2.13;;;;;;;;;;4917368;29;20025;-45
2022/07/20 06:26:32;;;;;;;5.88;2.35;;;;;;;;;;4916945;29;20381;-48
2022/07/20 06:28:57;;;;;;;3.63;1.60;;;;;;;;;;4917313;29;20028;-45
2022/07/20 06:31:23;;;;;;;4.50;1.77;;;;;;;;;;4916768;29;20044;-44
2022/07/20 06:33:48;;;;;;;8.60;2.00;;;;;;;;;;4916998;29;20028;-47
2022/07/20 06:36:16;;;;;;;8.35;2.13;;;;;;;;;;4917235;29;20028;-45
2022/07/20 06:38:41;;;;;;;9.30;2.40;;;;;;;;;;4916818;29;20024;-49
2022/07/20 06:41:07;;;;;;;7.15;2.22;;;;;;;;;;4917178;29;20032;-48
2022/07/20 06:43:32;;;;;;;11.13;2.50;;;;;;;;;;4916925;29;20473;-45
2022/07/20 06:45:57;;;;;;;14.13;2.85;;;;;;;;;;4917086;29;20058;-47
2022/07/20 06:48:23;;;;;;;15.20;2.33;;;;;;;;;;4916736;29;20084;-44
2022/07/20 06:50:49;;;;;;;8.95;2.22;;;;;;;;;;4916729;29;20039;-48
2022/07/20 06:53:14;;;;;;;5.90;1.90;;;;;;;;;;4917062;29;20039;-49
2022/07/20 06:55:40;;;;;;;8.18;2.17;;;;;;;;;;4916877;29;20119;-46
2022/07/20 06:58:05;;;;;;;6.10;1.90;;;;;;;;;;4916566;29;20024;-48
2022/07/20 07:00:31;;;;;;;4.82;2.00;;;;;;;;;;4917031;29;20123;-46
2022/07/20 07:02:57;;;;;;;11.15;1.92;;;;;;;;;;4916563;29;20107;-46
2022/07/20 07:05:22;;;;;;;10.45;1.80;;;;;;;;;;4915423;29;20031;-49
2022/07/20 07:07:48;;;;;;;8.20;1.85;;;;;;;;;;4916922;29;20028;-50
2022/07/20 07:10:13;;;;;;;5.10;1.70;;;;;;;;;;4915085;29;20044;-48
2022/07/20 07:12:39;;;;;;;8.98;1.80;;;;;;;;;;4916341;29;20032;-47
2022/07/20 07:15:05;;;;;;;4.47;1.77;;;;;;;;;;4916421;29;20032;-45
2022/07/20 07:17:31;;;;;;;9.13;1.80;;;;;;;;;;4916491;29;20100;-45
2022/07/20 07:19:59;;;;;;;3.55;1.60;;;;;;;;;;4916734;29;20481;-45
2022/07/20 07:22:26;;;;;;;13.15;2.40;;;;;;;;;;4916445;29;20030;-46
2022/07/20 07:24:52;;;;;;;5.40;1.70;;;;;;;;;;4916596;29;20028;-45
2022/07/20 07:27:18;;;;;;;3.70;1.38;;;;;;;;;;4916498;29;20405;-47
2022/07/20 07:29:43;;;;;;;4.40;1.70;;;;;;;;;;4916627;29;20116;-45
2022/07/20 07:32:09;;;;;;;13.40;2.07;;;;;;;;;;4916245;29;20044;-50
2022/07/20 07:34:34;;;;;;;4.18;1.63;;;;;;;;;;4916501;29;20274;-49
2022/07/20 07:37:00;;;;;;;11.27;1.80;;;;;;;;;;4916589;29;20055;-45
2022/07/20 07:39:25;;;;;;;4.35;1.67;;;;;;;;;;4916501;29;20028;-45
2022/07/20 07:41:51;;;;;;;6.10;1.75;;;;;;;;;;4916507;29;20036;-47
2022/07/20 07:44:16;;;;;;;3.70;1.52;;;;;;;;;;4916645;29;20462;-44
2022/07/20 07:46:42;;;;;;;6.35;2.10;;;;;;;;;;4916187;29;20074;-50
2022/07/20 07:49:07;;;;;;;2.15;1.25;;;;;;;;;;4916783;29;20476;-51
2022/07/20 07:51:33;;;;;;;4.40;1.20;;;;;;;;;;4915950;29;20484;-46
2022/07/20 07:53:58;;;;;;;5.07;1.52;;;;;;;;;;4916422;29;20039;-50
2022/07/20 07:56:24;;;;;;;5.75;1.58;;;;;;;;;;4916361;29;20035;-51
2022/07/20 07:58:50;;;;;;;5.72;1.50;;;;;;;;;;4916447;29;20059;-49
2022/07/20 08:01:15;;;;;;;6.07;1.40;;;;;;;;;;4916213;29;20024;-45
2022/07/20 08:03:41;;;;;;;10.00;1.40;;;;;;;;;;4916017;29;20152;-46
2022/07/20 08:06:06;;;;;;;7.85;1.50;;;;;;;;;;4916325;29;20031;-48
2022/07/20 08:08:32;;;;;;;5.68;1.20;;;;;;;;;;4916181;29;20095;-50
2022/07/20 08:10:58;;;;;;;5.80;1.50;;;;;;;;;;4915914;29;20035;-50
2022/07/20 08:13:26;;;;;;;3.88;1.33;;;;;;;;;;4916243;29;20034;-47
2022/07/20 08:15:51;;;;;;;8.60;1.60;;;;;;;;;;4914417;29;20020;-46
2022/07/20 08:18:17;;;;;;;4.45;1.92;;;;;;;;;;4914032;29;20119;-44
2022/07/20 08:20:42;;;;;;;3.55;1.40;;;;;;;;;;4914221;29;20437;-46
2022/07/20 08:23:08;;;;;;;4.80;1.10;;;;;;;;;;4914122;29;20507;-45
2022/07/20 08:25:33;;;;;;;3.53;1.23;;;;;;;;;;4914734;29;20157;-49
2022/07/20 08:28:16;;;;;;;7.00;1.70;;;;;;;;;;4918424;29;20032;-47
2022/07/20 08:30:44;;;;;;;8.98;1.60;;;;;;;;;;4918564;29;20040;-46
2022/07/20 08:33:10;;;;;;;;;;;;;;;;;;4919663;29;20189;-46
2022/07/20 08:35:36;;;;;;;5.47;1.40;;;;;;;;;;4919250;29;19998;-48
2022/07/20 08:38:01;;;;;;;5.22;1.30;;;;;;;;;;4919756;29;20269;-48
2022/07/20 08:40:28;;;;;;;2.30;1.20;;;;;;;;;;4919167;29;20499;-46
2022/07/20 08:42:54;;;;;;;3.05;1.25;;;;;;;;;;4919106;29;20024;-46
2022/07/20 08:45:22;;;;;;;4.40;1.23;;;;;;;;;;4919747;29;20028;-44
2022/07/20 08:47:48;;;;;;;4.88;1.20;;;;;;;;;;4918924;29;20044;-48
2022/07/20 08:50:14;;;;;;;3.05;1.55;;;;;;;;;;4917856;29;20392;-48
2022/07/20 08:52:39;;;;;;;2.67;1.17;;;;;;;;;;4918936;29;20040;-48
2022/07/20 08:55:06;;;;;;;2.00;1.27;;;;;;;;;;4918878;29;20039;-45
2022/07/20 08:57:31;;;;;;;3.55;1.20;;;;;;;;;;4918461;29;20036;-50
2022/07/20 08:59:57;;;;;;;5.88;1.50;;;;;;;;;;4918444;29;20054;-46
2022/07/20 09:02:23;;;;;;;11.10;1.45;;;;;;;;;;4918504;29;20115;-49
2022/07/20 09:04:54;;;;;;;4.78;1.23;;;;;;;;;;4919004;29;20029;-47
2022/07/20 09:07:42;;;;;;;2.33;1.00;;;;;;;;;;4918633;29;20043;-46
2022/07/20 09:10:19;;;;;;;4.32;1.27;;;;;;;;;;4918773;29;20032;-45
2022/07/20 09:12:56;;;;;;;6.72;1.73;;;;;;;;;;4913220;29;20123;-47
2022/07/20 09:15:38;;;;;;;1.98;1.30;;;;;;;;;;4916763;29;20032;-44
2022/07/20 09:18:05;;;;;;;3.85;1.17;;;;;;;;;;4917168;29;20088;-44
2022/07/20 09:20:32;;;;;;;6.57;1.30;;;;;;;;;;4916778;29;20040;-48
2022/07/20 09:23:10;;;;;;;1.30;1.20;;;;;;;;;;4915721;29;20040;-46
2022/07/20 09:25:36;;;;;;;;;;;;;;;;;;4917535;29;20032;-46
2022/07/20 09:28:03;;;;;;;3.47;1.40;;;;;;;;;;4917105;29;19922;-49
2022/07/20 09:30:30;;;;;;;3.67;1.10;;;;;;;;;;4916755;29;20480;-48
2022/07/20 09:32:59;;;;;;;7.35;1.30;;;;;;;;;;4916694;29;20039;-48
2022/07/20 09:35:29;;;;;;;3.65;1.13;;;;;;;;;;4916684;29;20028;-48
2022/07/20 09:37:56;;;;;;;4.38;1.08;;;;;;;;;;4914674;29;20047;-46
2022/07/20 09:40:21;;;;;;;1.60;1.05;;;;;;;;;;4916383;29;20073;-44
2022/07/20 09:42:47;;;;;;;3.10;1.30;;;;;;;;;;4917191;29;20056;-50
2022/07/20 09:45:24;;;;;;;2.25;1.00;;;;;;;;;;4915258;29;20038;-49
2022/07/20 09:48:09;;;;;;;4.28;1.00;;;;;;;;;;4916223;29;20086;-42
2022/07/20 09:50:41;;;;;;;2.05;1.27;;;;;;;;;;4916790;29;20048;-48
2022/07/20 09:53:08;;;;;;;2.95;1.52;;;;;;;;;;4916426;29;20036;-50
2022/07/20 09:55:35;;;;;;;5.57;1.35;;;;;;;;;;4916317;29;20082;-47
2022/07/20 09:58:01;;;;;;;3.65;1.25;;;;;;;;;;4916352;29;20024;-46
2022/07/20 10:00:28;;;;;;;4.82;1.63;;;;;;;;;;4916501;29;20044;-50
2022/07/20 10:02:56;;;;;;;1.90;1.25;;;;;;;;;;4916187;29;20039;-43
2022/07/20 10:05:23;;;;;;;5.97;1.48;;;;;;;;;;4916350;29;20024;-45
2022/07/20 10:07:49;;;;;;;2.67;1.25;;;;;;;;;;4916249;29;20452;-45
2022/07/20 10:10:15;;;;;;;2.13;1.05;;;;;;;;;;4915649;29;20048;-46
2022/07/20 10:12:40;;;;;;;3.72;1.10;;;;;;;;;;4915843;29;20040;-47
2022/07/20 10:15:15;;;;;;;1.08;1.02;;;;;;;;;;4916196;29;20643;-45
2022/07/20 10:17:43;;;;;;;3.10;1.10;;;;;;;;;;4915648;29;20452;-47
2022/07/20 10:20:37;;;;;;;4.93;1.50;;;;;;;;;;4915942;29;20032;-43
2022/07/20 10:23:14;;;;;;;4.10;1.02;;;;;;;;;;4916062;29;20040;-45
2022/07/20 10:25:44;;;;;;;5.05;1.40;;;;;;;;;;4916069;29;20040;-48
2022/07/20 10:28:57;;;;;;;4.00;1.10;;;;;;;;;;4915818;29;20028;-48
2022/07/20 10:31:22;;;;;;;1.92;1.10;;;;;;;;;;4856576;29;20454;-49
2022/07/20 10:33:48;;;;;;;2.35;1.17;;;;;;;;;;4907748;29;20044;-48
2022/07/20 10:36:42;;;;;;;2.90;1.17;;;;;;;;;;4915102;29;20064;-48
2022/07/20 10:39:44;;;;;;;4.68;1.33;;;;;;;;;;4915545;29;20036;-43
2022/07/20 10:42:33;;;;;;;4.97;0.90;;;;;;;;;;4912872;29;20087;-48
2022/07/20 10:45:14;;;;;;;3.72;1.13;;;;;;;;;;4915909;29;20127;-50
2022/07/20 10:47:51;;;;;;;3.95;1.75;;;;;;;;;;4914939;29;20052;-49
2022/07/20 10:50:52;;;;;;;1.52;1.42;;;;;;;;;;4915453;29;20043;-45
2022/07/20 10:53:18;;;;;;;4.90;1.10;;;;;;;;;;4914518;29;20109;-49
2022/07/20 10:55:55;;;;;;;2.42;1.20;;;;;;;;;;4914987;29;20036;-46
2022/07/20 10:58:26;;;;;;;4.97;1.10;;;;;;;;;;4913665;29;20125;-44
2022/07/20 11:00:57;;;;;;;1.48;1.08;;;;;;;;;;4912424;29;20385;-44
2022/07/20 11:03:41;;;;;;;1.33;1.05;;;;;;;;;;4915099;29;20036;-41
2022/07/20 11:06:18;;;;;;;2.15;1.20;;;;;;;;;;4912071;29;20481;-43
2022/07/20 11:08:51;;;;;;;5.15;1.23;;;;;;;;;;4896314;29;20641;-45
2022/07/20 11:11:20;;;;;;;1.20;1.10;;;;;;;;;;4895887;29;20047;-43
2022/07/20 11:13:47;;;;;;;0.70;0.70;;;;;;;;;;4896062;29;20080;-43
2022/07/20 11:16:13;;;;;;;4.47;1.20;;;;;;;;;;4895450;29;20072;-43
2022/07/20 11:18:38;;;;;;;5.00;1.30;;;;;;;;;;4896160;29;20025;-44
2022/07/20 11:21:11;;;;;;;2.45;1.10;;;;;;;;;;4896104;29;20623;-46
2022/07/20 11:23:42;;;;;;;2.45;1.20;;;;;;;;;;4895920;29;20080;-45
2022/07/20 11:26:08;;;;;;;2.25;1.30;;;;;;;;;;4895908;29;20024;-45
2022/07/20 11:28:36;;;;;;;1.50;1.10;;;;;;;;;;4895725;29;20032;-47
2022/07/20 11:31:03;;;;;;;4.40;1.27;;;;;;;;;;4906428;29;20046;-47
2022/07/20 11:33:38;;;;;;;6.93;1.50;;;;;;;;;;4914879;29;20036;-47
2022/07/20 11:36:09;;;;;;;1.30;1.10;;;;;;;;;;4914712;29;20075;-45
2022/07/20 11:38:43;;;;;;;1.27;1.10;;;;;;;;;;4915048;29;20055;-44
2022/07/20 11:41:39;;;;;;;3.55;2.08;;;;;;;;;;4914035;29;20476;-46
2022/07/20 11:44:07;;;;;;;2.30;1.30;;;;;;;;;;4914237;29;20135;-47
2022/07/20 11:46:40;;;;;;;2.65;1.20;;;;;;;;;;4913952;29;20060;-47
2022/07/20 11:49:07;;;;;;;1.70;0.95;;;;;;;;;;4914438;29;20107;-44
2022/07/20 11:51:35;;;;;;;2.10;1.10;;;;;;;;;;4913822;29;20028;-45
2022/07/20 11:54:02;;;;;;;3.50;1.30;;;;;;;;;;4914512;29;20366;-47
2022/07/20 11:56:29;;;;;;;2.65;1.20;;;;;;;;;;4913990;29;20032;-45
2022/07/20 11:58:58;;;;;;;2.80;1.27;;;;;;;;;;4914138;29;20066;-45
2022/07/20 12:01:29;;;;;;;1.65;1.38;;;;;;;;;;4918164;29;20108;-47
2022/07/20 12:04:04;;;;;;;3.30;1.30;;;;;;;;;;4918227;29;20035;-47
2022/07/20 12:06:33;;;;;;;2.58;1.10;;;;;;;;;;4918421;29;20028;-46
2022/07/20 12:09:17;;;;;;;2.33;1.10;;;;;;;;;;4918123;29;20028;-46
2022/07/20 12:12:04;;;;;;;1.92;1.73;;;;;;;;;;4912316;29;20469;-42
2022/07/20 12:14:38;;;;;;;1.58;1.17;;;;;;;;;;4917818;29;20068;-42
2022/07/20 12:17:19;;;;;;;4.00;1.42;;;;;;;;;;4917229;29;20024;-48
2022/07/20 12:19:48;;;;;;;3.47;1.10;;;;;;;;;;4916435;29;20032;-47
2022/07/20 12:22:15;;;;;;;5.43;1.33;;;;;;;;;;4924874;29;20083;-45
2022/07/20 12:25:02;;;;;;;2.35;1.20;;;;;;;;;;4916945;29;20652;-47
2022/07/20 12:27:30;;;;;;;2.15;1.33;;;;;;;;;;4917654;29;20040;-49
2022/07/20 12:29:57;;;;;;;2.03;1.17;;;;;;;;;;4917864;29;20355;-47
2022/07/20 12:32:36;;;;;;;4.45;1.40;;;;;;;;;;4918208;29;20032;-47
2022/07/20 12:35:04;;;;;;;1.40;1.30;;;;;;;;;;4917868;29;20032;-46
2022/07/20 12:37:50;;;;;;;6.70;1.20;;;;;;;;;;4918191;29;20103;-45
2022/07/20 12:40:39;;;;;;;2.58;1.30;;;;;;;;;;4917541;29;20087;-47
2022/07/20 12:43:35;;;;;;;3.13;1.30;;;;;;;;;;4917727;29;20130;-45
2022/07/20 12:46:08;;;;;;;3.85;1.50;;;;;;;;;;4911467;29;20127;-48
2022/07/20 12:48:53;;;;;;;7.13;1.30;;;;;;;;;;4917110;29;20048;-46
2022/07/20 12:51:20;;;;;;;4.53;1.75;;;;;;;;;;4916584;29;20063;-48
2022/07/20 12:53:51;;;;;;;4.80;1.40;;;;;;;;;;4916795;29;20515;-45
2022/07/20 12:56:16;;;;;;;2.92;1.58;;;;;;;;;;4917123;29;20063;-41
2022/07/20 12:58:42;;;;;;;1.20;1.10;;;;;;;;;;4917763;29;20412;-43
2022/07/20 13:01:08;;;;;;;1.70;1.10;;;;;;;;;;4917177;29;20032;-44
2022/07/20 13:03:34;;;;;;;1.25;1.10;;;;;;;;;;4917575;29;20063;-46
2022/07/20 13:05:59;;;;;;;4.25;1.85;;;;;;;;;;4917553;29;20032;-50
2022/07/20 13:08:30;;;;;;;2.45;1.23;;;;;;;;;;4917156;29;20036;-46
2022/07/20 13:10:56;;;;;;;3.20;1.38;;;;;;;;;;4916503;29;20039;-43
2022/07/20 13:13:21;;;;;;;3.55;1.27;;;;;;;;;;4917234;29;20036;-44
2022/07/20 13:15:47;;;;;;;5.20;1.65;;;;;;;;;;4917105;29;20032;-44
2022/07/20 13:18:12;;;;;;;5.85;1.80;;;;;;;;;;4917243;29;20032;-48
2022/07/20 13:20:39;;;;;;;5.82;2.00;;;;;;;;;;4917170;29;20062;-42
2022/07/20 13:23:05;;;;;;;3.42;1.42;;;;;;;;;;4917124;29;20032;-51
2022/07/20 13:25:32;;;;;;;3.90;1.20;;;;;;;;;;4916805;29;20070;-46
2022/07/20 13:27:59;;;;;;;3.78;1.80;;;;;;;;;;4916946;29;20396;-44
2022/07/20 13:30:25;;;;;;;3.40;1.80;;;;;;;;;;4916682;29;20421;-46
2022/07/20 13:32:51;;;;;;;6.93;1.83;;;;;;;;;;4916814;29;20131;-45
2022/07/20 13:35:16;;;;;;;4.90;1.67;;;;;;;;;;4916928;29;20466;-43
2022/07/20 13:37:42;;;;;;;2.97;1.70;;;;;;;;;;4916723;29;20147;-45
2022/07/20 13:40:10;;;;;;;3.67;1.30;;;;;;;;;;4916651;29;20032;-47
2022/07/20 13:42:36;;;;;;;1.73;1.30;;;;;;;;;;4916821;29;20115;-46
2022/07/20 13:45:04;;;;;;;3.35;1.48;;;;;;;;;;4916580;29;20024;-46
2022/07/20 13:47:29;;;;;;;4.75;1.48;;;;;;;;;;4916323;29;20048;-45
2022/07/20 13:49:55;;;;;;;2.60;1.45;;;;;;;;;;4916350;29;20083;-45
2022/07/20 13:52:20;;;;;;;2.60;1.52;;;;;;;;;;4916557;29;20042;-44
2022/07/20 13:54:45;;;;;;;5.35;1.20;;;;;;;;;;4916511;29;20031;-47
2022/07/20 13:57:11;;;;;;;4.32;1.45;;;;;;;;;;4916280;29;20731;-47
2022/07/20 13:59:36;;;;;;;2.13;1.40;;;;;;;;;;4916302;29;20032;-45
2022/07/20 14:02:02;;;;;;;3.30;1.30;;;;;;;;;;4916397;29;20028;-46
2022/07/20 14:04:27;;;;;;;1.65;1.13;;;;;;;;;;4916331;29;20484;-45
2022/07/20 14:06:52;;;;;;;15.73;2.97;;;;;;;;;;4916461;29;20021;-46
2022/07/20 14:09:18;;;;;;;6.00;1.35;;;;;;;;;;4914911;29;20136;-49
2022/07/20 14:11:43;;;;;;;2.90;1.42;;;;;;;;;;4915582;29;20136;-46
2022/07/20 14:14:09;;;;;;;1.83;1.40;;;;;;;;;;4914400;29;20389;-42
2022/07/20 14:16:35;;;;;;;4.55;1.80;;;;;;;;;;4914712;29;20048;-46
2022/07/20 14:19:00;;;;;;;3.50;1.35;;;;;;;;;;4914746;29;20069;-48
2022/07/20 14:21:25;;;;;;;2.53;1.60;;;;;;;;;;4914837;29;20279;-44
2022/07/20 14:23:51;;;;;;;2.60;1.50;;;;;;;;;;4913688;29;20032;-42
2022/07/20 14:26:18;;;;;;;14.80;2.28;;;;;;;;;;4915131;29;20040;-44
2022/07/20 14:28:45;;;;;;;6.30;1.95;;;;;;;;;;4915705;29;20036;-46
2022/07/20 14:31:10;;;;;;;5.75;2.08;;;;;;;;;;4915694;29;20440;-45
2022/07/20 14:33:35;;;;;;;3.33;1.65;;;;;;;;;;4915605;29;20115;-44
2022/07/20 14:36:01;;;;;;;3.50;1.50;;;;;;;;;;4915836;29;20024;-48
2022/07/20 14:38:27;;;;;;;1.92;1.50;;;;;;;;;;4915861;29;20070;-45
2022/07/20 14:40:53;;;;;;;3.78;1.45;;;;;;;;;;4915283;29;20043;-45
2022/07/20 14:43:18;;;;;;;5.63;1.50;;;;;;;;;;4915281;29;20122;-45
2022/07/20 14:45:45;;;;;;;2.20;1.42;;;;;;;;;;4915689;29;20040;-45
2022/07/20 14:48:10;;;;;;;2.63;1.35;;;;;;;;;;4915347;29;20052;-46
2022/07/20 14:50:36;;;;;;;4.70;1.40;;;;;;;;;;4915633;29;20481;-48